createdAt,value
2017-08-12T00:00:59.329Z,0
2017-08-12T00:02:11.912Z,0
2017-08-12T00:03:24.191Z,0
2017-08-12T00:04:36.755Z,0
2017-08-12T00:05:49.008Z,0
2017-08-12T00:07:00.976Z,0
2017-08-12T00:08:13.325Z,0
2017-08-12T00:09:25.600Z,0
2017-08-12T00:10:37.871Z,0
2017-08-12T00:11:50.205Z,0
2017-08-12T00:13:02.829Z,0
2017-08-12T00:14:15.075Z,0
2017-08-12T00:15:27.710Z,0
2017-08-12T00:16:40.006Z,0
2017-08-12T00:17:52.652Z,0
2017-08-12T00:19:05.208Z,0
2017-08-12T00:20:17.755Z,0
2017-08-12T00:21:30.335Z,0
2017-08-12T00:22:42.895Z,0
2017-08-12T00:23:55.449Z,0
2017-08-12T00:25:07.711Z,0
2017-08-12T00:26:20.282Z,0
2017-08-12T00:27:32.570Z,0
2017-08-12T00:28:44.854Z,0
2017-08-12T00:29:57.098Z,0
2017-08-12T00:31:09.940Z,0
2017-08-12T00:32:22.173Z,0
2017-08-12T00:33:34.819Z,0
2017-08-12T00:34:47.403Z,0
2017-08-12T00:35:59.699Z,0
2017-08-12T00:37:12.262Z,0
2017-08-12T00:38:24.892Z,0
2017-08-12T00:39:37.497Z,0
2017-08-12T00:40:49.826Z,0
2017-08-12T00:42:02.406Z,0
2017-08-12T00:43:14.926Z,0
2017-08-12T00:44:27.197Z,0
2017-08-12T00:45:39.821Z,0
2017-08-12T00:46:52.095Z,0
2017-08-12T00:48:04.710Z,0
2017-08-12T00:49:16.683Z,0
2017-08-12T00:50:29.281Z,0
2017-08-12T00:51:41.570Z,0
2017-08-12T00:52:54.127Z,0
2017-08-12T00:54:06.686Z,0
2017-08-12T00:55:18.920Z,0
2017-08-12T00:56:31.284Z,0
2017-08-12T00:57:43.525Z,0
2017-08-12T00:58:55.802Z,0
2017-08-12T01:00:07.730Z,0
2017-08-12T01:01:19.729Z,0
2017-08-12T01:02:32.360Z,0
2017-08-12T01:03:44.606Z,0
2017-08-12T01:04:57.157Z,0
2017-08-12T01:06:09.150Z,0
2017-08-12T01:07:21.751Z,0
2017-08-12T01:08:34.340Z,0
2017-08-12T01:09:46.885Z,0
2017-08-12T01:10:59.463Z,0
2017-08-12T01:12:11.702Z,0
2017-08-12T01:13:23.979Z,0
2017-08-12T01:14:36.579Z,0
2017-08-12T01:15:49.175Z,0
2017-08-12T01:17:01.186Z,0
2017-08-12T01:18:13.473Z,0
2017-08-12T01:19:25.452Z,0
2017-08-12T01:20:38.117Z,0
2017-08-12T01:21:50.700Z,0
2017-08-12T01:23:02.625Z,0
2017-08-12T01:24:15.198Z,0
2017-08-12T01:25:27.783Z,0
2017-08-12T01:26:40.339Z,0
2017-08-12T01:27:52.630Z,0
2017-08-12T01:29:05.195Z,0
2017-08-12T01:30:17.792Z,0
2017-08-12T01:31:30.326Z,0
2017-08-12T01:32:42.635Z,0
2017-08-12T01:33:54.957Z,0
2017-08-12T01:35:07.553Z,0
2017-08-12T01:36:18.913Z,0
2017-08-12T01:37:31.516Z,0
2017-08-12T01:38:44.062Z,0
2017-08-12T01:39:56.567Z,0
2017-08-12T01:41:09.114Z,0
2017-08-12T01:42:21.428Z,0
2017-08-12T01:43:34.046Z,0
2017-08-12T01:44:46.632Z,0
2017-08-12T01:45:58.911Z,0
2017-08-12T01:47:11.812Z,0
2017-08-12T01:48:24.054Z,0
2017-08-12T01:49:36.676Z,0
2017-08-12T01:50:48.328Z,0
2017-08-12T01:52:00.654Z,0
2017-08-12T01:53:13.254Z,0
2017-08-12T01:54:25.861Z,0
2017-08-12T01:55:38.143Z,0
2017-08-12T01:56:50.750Z,0
2017-08-12T01:58:03.334Z,0
2017-08-12T01:59:15.621Z,0
2017-08-12T02:00:28.216Z,0
2017-08-12T02:01:40.769Z,0
2017-08-12T02:02:53.155Z,0
2017-08-12T02:04:05.399Z,0
2017-08-12T02:05:17.704Z,0
2017-08-12T02:06:30.354Z,0
2017-08-12T02:07:42.924Z,0
2017-08-12T02:08:55.459Z,0
2017-08-12T02:10:07.448Z,0
2017-08-12T02:11:19.737Z,0
2017-08-12T02:12:32.375Z,0
2017-08-12T02:13:44.650Z,0
2017-08-12T02:14:56.865Z,0
2017-08-12T02:16:09.096Z,0
2017-08-12T02:17:21.088Z,0
2017-08-12T02:18:33.101Z,0
2017-08-12T02:19:45.678Z,0
2017-08-12T02:20:58.269Z,0
2017-08-12T02:22:10.832Z,0
2017-08-12T02:23:23.437Z,0
2017-08-12T02:24:35.717Z,0
2017-08-12T02:25:48.300Z,0
2017-08-12T02:27:00.933Z,0
2017-08-12T02:28:12.855Z,0
2017-08-12T02:29:25.476Z,0
2017-08-12T02:30:38.114Z,0
2017-08-12T02:31:50.465Z,0
2017-08-12T02:33:03.109Z,0
2017-08-12T02:34:15.727Z,0
2017-08-12T02:35:28.368Z,0
2017-08-12T02:36:40.967Z,0
2017-08-12T02:37:53.187Z,0
2017-08-12T02:39:05.468Z,0
2017-08-12T02:40:18.096Z,0
2017-08-12T02:41:30.379Z,0
2017-08-12T02:42:42.671Z,0
2017-08-12T02:43:55.301Z,0
2017-08-12T02:45:07.561Z,0
2017-08-12T02:46:19.811Z,0
2017-08-12T02:47:32.334Z,0
2017-08-12T02:48:44.850Z,0
2017-08-12T02:49:56.902Z,0
2017-08-12T02:51:09.166Z,0
2017-08-12T02:52:21.615Z,0
2017-08-12T02:53:33.894Z,0
2017-08-12T02:54:46.207Z,0
2017-08-12T02:55:58.476Z,0
2017-08-12T02:57:11.082Z,0
2017-08-12T02:58:23.649Z,0
2017-08-12T02:59:35.670Z,0
2017-08-12T03:00:48.286Z,0
2017-08-12T03:02:00.926Z,0
2017-08-12T03:03:12.912Z,0
2017-08-12T03:04:25.538Z,0
2017-08-12T03:05:38.141Z,0
2017-08-12T03:06:50.074Z,0
2017-08-12T03:08:02.741Z,0
2017-08-12T03:09:15.305Z,0
2017-08-12T03:10:27.287Z,0
2017-08-12T03:11:39.258Z,0
2017-08-12T03:12:51.529Z,0
2017-08-12T03:14:04.364Z,0
2017-08-12T03:15:16.609Z,4
2017-08-12T03:16:28.883Z,4
2017-08-12T03:17:41.126Z,4
2017-08-12T03:18:53.159Z,4
2017-08-12T03:20:05.447Z,4
2017-08-12T03:21:17.421Z,4
2017-08-12T03:22:29.713Z,8
2017-08-12T03:23:41.969Z,8
2017-08-12T03:24:54.308Z,8
2017-08-12T03:26:06.554Z,8
2017-08-12T03:27:18.825Z,16
2017-08-12T03:28:30.822Z,12
2017-08-12T03:29:43.436Z,12
2017-08-12T03:30:56.009Z,16
2017-08-12T03:32:08.656Z,16
2017-08-12T03:33:21.280Z,20
2017-08-12T03:34:33.496Z,20
2017-08-12T03:35:45.993Z,28
2017-08-12T03:36:58.511Z,28
2017-08-12T03:38:10.766Z,32
2017-08-12T03:39:23.064Z,36
2017-08-12T03:40:35.398Z,52
2017-08-12T03:41:47.956Z,52
2017-08-12T03:43:00.523Z,56
2017-08-12T03:44:12.837Z,76
2017-08-12T03:45:24.811Z,76
2017-08-12T03:46:37.665Z,68
2017-08-12T03:47:50.254Z,80
2017-08-12T03:49:02.889Z,104
2017-08-12T03:50:15.166Z,144
2017-08-12T03:51:27.454Z,124
2017-08-12T03:52:38.790Z,148
2017-08-12T03:53:51.065Z,148
2017-08-12T03:55:03.650Z,184
2017-08-12T03:56:16.332Z,144
2017-08-12T03:57:28.305Z,156
2017-08-12T03:58:40.617Z,192
2017-08-12T03:59:52.859Z,176
2017-08-12T04:01:05.460Z,212
2017-08-12T04:02:17.479Z,200
2017-08-12T04:03:30.028Z,204
2017-08-12T04:04:42.016Z,204
2017-08-12T04:05:54.587Z,216
2017-08-12T04:07:07.160Z,248
2017-08-12T04:08:19.766Z,248
2017-08-12T04:09:32.409Z,268
2017-08-12T04:10:44.958Z,320
2017-08-12T04:11:57.268Z,320
2017-08-12T04:13:09.831Z,232
2017-08-12T04:14:22.414Z,240
2017-08-12T04:15:35.065Z,260
2017-08-12T04:16:47.379Z,276
2017-08-12T04:17:59.673Z,276
2017-08-12T04:19:11.977Z,348
2017-08-12T04:20:24.276Z,348
2017-08-12T04:21:36.253Z,452
2017-08-12T04:22:48.786Z,492
2017-08-12T04:24:01.355Z,684
2017-08-12T04:25:14.003Z,804
2017-08-12T04:26:26.555Z,908
2017-08-12T04:27:38.525Z,736
2017-08-12T04:28:50.786Z,712
2017-08-12T04:30:03.411Z,824
2017-08-12T04:31:15.408Z,1044
2017-08-12T04:32:27.707Z,1108
2017-08-12T04:33:40.302Z,920
2017-08-12T04:34:52.890Z,1000
2017-08-12T04:36:05.435Z,1100
2017-08-12T04:37:17.435Z,1072
2017-08-12T04:38:30.085Z,1064
2017-08-12T04:39:42.651Z,1408
2017-08-12T04:40:55.228Z,1072
2017-08-12T04:42:07.201Z,1240
2017-08-12T04:43:19.792Z,1496
2017-08-12T04:44:32.364Z,1384
2017-08-12T04:45:44.915Z,1408
2017-08-12T04:46:57.786Z,1400
2017-08-12T04:48:10.413Z,1516
2017-08-12T04:49:22.652Z,1620
2017-08-12T04:50:34.949Z,1388
2017-08-12T04:51:47.508Z,1524
2017-08-12T04:52:59.807Z,1868
2017-08-12T04:54:12.411Z,2116
2017-08-12T04:55:24.972Z,1732
2017-08-12T04:56:37.574Z,1992
2017-08-12T04:57:50.138Z,1984
2017-08-12T04:59:02.765Z,1664
2017-08-12T05:00:15.078Z,1756
2017-08-12T05:01:27.051Z,1984
2017-08-12T05:02:39.372Z,1744
2017-08-12T05:03:51.648Z,2216
2017-08-12T05:05:04.232Z,2496
2017-08-12T05:06:16.533Z,1872
2017-08-12T05:07:28.811Z,1912
2017-08-12T05:08:41.400Z,2088
2017-08-12T05:09:54.042Z,2492
2017-08-12T05:11:06.618Z,2656
2017-08-12T05:12:18.900Z,2840
2017-08-12T05:13:31.436Z,2700
2017-08-12T05:14:43.701Z,2568
2017-08-12T05:15:55.963Z,2520
2017-08-12T05:17:08.304Z,2952
2017-08-12T05:18:20.629Z,2692
2017-08-12T05:19:32.917Z,2728
2017-08-12T05:20:45.192Z,2420
2017-08-12T05:21:57.806Z,2380
2017-08-12T05:23:10.058Z,2528
2017-08-12T05:24:22.647Z,2784
2017-08-12T05:25:35.194Z,3672
2017-08-12T05:26:47.469Z,3532
2017-08-12T05:28:00.035Z,4360
2017-08-12T05:29:12.588Z,4520
2017-08-12T05:30:25.220Z,3356
2017-08-12T05:31:37.449Z,2648
2017-08-12T05:32:49.968Z,2040
2017-08-12T05:34:02.566Z,2420
2017-08-12T05:35:15.073Z,2964
2017-08-12T05:36:27.713Z,4032
2017-08-12T05:37:40.332Z,5128
2017-08-12T05:38:52.586Z,4316
2017-08-12T05:40:04.871Z,4168
2017-08-12T05:41:17.452Z,3452
2017-08-12T05:42:30.073Z,3328
2017-08-12T05:43:42.669Z,2600
2017-08-12T05:44:55.320Z,2668
2017-08-12T05:46:07.913Z,3248
2017-08-12T05:47:20.502Z,5404
2017-08-12T05:48:32.807Z,5488
2017-08-12T05:49:44.738Z,5572
2017-08-12T05:50:57.241Z,4540
2017-08-12T05:52:09.853Z,3968
2017-08-12T05:53:22.499Z,3516
2017-08-12T05:54:34.813Z,4436
2017-08-12T05:55:47.392Z,5908
2017-08-12T05:56:59.643Z,6016
2017-08-12T05:58:11.869Z,4356
2017-08-12T05:59:24.511Z,5300
2017-08-12T06:00:36.517Z,4064
2017-08-12T06:01:48.813Z,6212
2017-08-12T06:03:01.116Z,6408
2017-08-12T06:04:13.690Z,5472
2017-08-12T06:05:26.315Z,5708
2017-08-12T06:06:38.891Z,6256
2017-08-12T06:07:51.193Z,6452
2017-08-12T06:09:03.786Z,8696
2017-08-12T06:10:16.407Z,9636
2017-08-12T06:11:28.449Z,6528
2017-08-12T06:12:41.020Z,6772
2017-08-12T06:13:53.231Z,5972
2017-08-12T06:15:05.818Z,5144
2017-08-12T06:16:18.104Z,5520
2017-08-12T06:17:30.759Z,4912
2017-08-12T06:18:43.389Z,4220
2017-08-12T06:19:55.645Z,4824
2017-08-12T06:21:08.231Z,6072
2017-08-12T06:22:20.826Z,5064
2017-08-12T06:23:33.125Z,4928
2017-08-12T06:24:45.732Z,4632
2017-08-12T06:25:58.324Z,4100
2017-08-12T06:27:10.602Z,4916
2017-08-12T06:28:23.280Z,4396
2017-08-12T06:29:35.927Z,4460
2017-08-12T06:30:48.505Z,4404
2017-08-12T06:32:01.068Z,4492
2017-08-12T06:33:13.394Z,4416
2017-08-12T06:34:25.717Z,4704
2017-08-12T06:35:38.293Z,5116
2017-08-12T06:36:50.902Z,6024
2017-08-12T06:38:03.450Z,6216
2017-08-12T06:39:16.071Z,5772
2017-08-12T06:40:28.365Z,5456
2017-08-12T06:41:40.622Z,5372
2017-08-12T06:42:53.215Z,5908
2017-08-12T06:44:05.489Z,5452
2017-08-12T06:45:17.809Z,5568
2017-08-12T06:46:30.391Z,6448
2017-08-12T06:47:42.641Z,6984
2017-08-12T06:48:54.965Z,7180
2017-08-12T06:50:07.261Z,7176
2017-08-12T06:51:19.856Z,8344
2017-08-12T06:52:32.123Z,6496
2017-08-12T06:53:44.106Z,5836
2017-08-12T06:54:56.758Z,6460
2017-08-12T06:56:08.470Z,5788
2017-08-12T06:57:20.789Z,5152
2017-08-12T06:58:33.110Z,4732
2017-08-12T06:59:45.405Z,4180
2017-08-12T07:00:57.720Z,5092
2017-08-12T07:02:10.353Z,5372
2017-08-12T07:03:22.612Z,5796
2017-08-12T07:04:34.596Z,6484
2017-08-12T07:05:47.204Z,6312
2017-08-12T07:06:59.500Z,6228
2017-08-12T07:08:12.071Z,7376
2017-08-12T07:09:24.048Z,6940
2017-08-12T07:10:36.266Z,7668
2017-08-12T07:11:48.785Z,6364
2017-08-12T07:13:01.661Z,8192
2017-08-12T07:14:13.939Z,5708
2017-08-12T07:15:26.565Z,7316
2017-08-12T07:16:39.199Z,5868
2017-08-12T07:17:51.795Z,4900
2017-08-12T07:19:04.366Z,4384
2017-08-12T07:20:16.687Z,4980
2017-08-12T07:21:29.276Z,5156
2017-08-12T07:22:41.852Z,4740
2017-08-12T07:23:54.092Z,5344
2017-08-12T07:25:06.339Z,4536
2017-08-12T07:26:18.877Z,5020
2017-08-12T07:27:31.498Z,4688
2017-08-12T07:28:44.076Z,3700
2017-08-12T07:29:56.059Z,4304
2017-08-12T07:31:08.644Z,5292
2017-08-12T07:32:20.277Z,4892
2017-08-12T07:33:32.567Z,4716
2017-08-12T07:34:44.860Z,6216
2017-08-12T07:35:57.401Z,7036
2017-08-12T07:37:09.953Z,5500
2017-08-12T07:38:22.268Z,5288
2017-08-12T07:39:34.838Z,6128
2017-08-12T07:40:47.439Z,7416
2017-08-12T07:42:00.032Z,7156
2017-08-12T07:43:12.304Z,5820
2017-08-12T07:44:24.316Z,6124
2017-08-12T07:45:36.951Z,7480
2017-08-12T07:46:49.541Z,7760
2017-08-12T07:48:02.098Z,6432
2017-08-12T07:49:14.643Z,5680
2017-08-12T07:50:27.270Z,5292
2017-08-12T07:51:39.557Z,5000
2017-08-12T07:52:51.820Z,7260
2017-08-12T07:54:04.451Z,5428
2017-08-12T07:55:17.048Z,5380
2017-08-12T07:56:29.635Z,7564
2017-08-12T07:57:41.872Z,5792
2017-08-12T07:58:53.828Z,5336
2017-08-12T08:00:06.396Z,5536
2017-08-12T08:01:18.341Z,7440
2017-08-12T08:02:30.043Z,7804
2017-08-12T08:03:41.738Z,8092
2017-08-12T08:04:54.010Z,9100
2017-08-12T08:06:05.679Z,7572
2017-08-12T08:07:17.884Z,8412
2017-08-12T08:08:30.479Z,7596
2017-08-12T08:09:43.091Z,9236
2017-08-12T08:10:55.634Z,9380
2017-08-12T08:12:08.212Z,9032
2017-08-12T08:13:20.731Z,11340
2017-08-12T08:14:32.732Z,10052
2017-08-12T08:15:45.300Z,8756
2017-08-12T08:16:57.571Z,9436
2017-08-12T08:18:10.192Z,10904
2017-08-12T08:19:22.781Z,11176
2017-08-12T08:20:35.350Z,9768
2017-08-12T08:21:47.609Z,9400
2017-08-12T08:23:00.229Z,12128
2017-08-12T08:24:12.189Z,12876
2017-08-12T08:25:24.513Z,14320
2017-08-12T08:26:36.218Z,11516
2017-08-12T08:27:48.802Z,14048
2017-08-12T08:29:01.004Z,15876
2017-08-12T08:30:13.570Z,16176
2017-08-12T08:31:26.147Z,12708
2017-08-12T08:32:38.786Z,12272
2017-08-12T08:33:51.008Z,15328
2017-08-12T08:35:02.994Z,13168
2017-08-12T08:36:14.974Z,9540
2017-08-12T08:37:27.230Z,9784
2017-08-12T08:38:39.209Z,12600
2017-08-12T08:39:52.028Z,13536
2017-08-12T08:41:04.582Z,8072
2017-08-12T08:42:16.790Z,9256
2017-08-12T08:43:28.773Z,8516
2017-08-12T08:44:40.747Z,9120
2017-08-12T08:45:53.323Z,12392
2017-08-12T08:47:05.985Z,12592
2017-08-12T08:48:18.282Z,14468
2017-08-12T08:49:30.854Z,19904
2017-08-12T08:50:42.585Z,20128
2017-08-12T08:51:54.851Z,15392
2017-08-12T08:53:07.392Z,9660
2017-08-12T08:54:19.687Z,8712
2017-08-12T08:55:31.974Z,10944
2017-08-12T08:56:44.589Z,10168
2017-08-12T08:57:56.950Z,7660
2017-08-12T08:59:08.929Z,9044
2017-08-12T09:00:20.960Z,10420
2017-08-12T09:01:33.203Z,10692
2017-08-12T09:02:45.433Z,13272
2017-08-12T09:03:58.016Z,10676
2017-08-12T09:05:10.302Z,12220
2017-08-12T09:06:22.586Z,11608
2017-08-12T09:07:35.192Z,13632
2017-08-12T09:08:47.767Z,12560
2017-08-12T09:09:59.765Z,19392
2017-08-12T09:11:12.398Z,22304
2017-08-12T09:12:24.986Z,23616
2017-08-12T09:13:37.604Z,25600
2017-08-12T09:14:50.166Z,30976
2017-08-12T09:16:01.862Z,30528
2017-08-12T09:17:14.202Z,26048
2017-08-12T09:18:26.787Z,26976
2017-08-12T09:19:39.394Z,20512
2017-08-12T09:20:51.948Z,20992
2017-08-12T09:22:04.530Z,13896
2017-08-12T09:23:17.131Z,20096
2017-08-12T09:24:29.684Z,19936
2017-08-12T09:25:42.238Z,16952
2017-08-12T09:26:54.838Z,13420
2017-08-12T09:28:07.430Z,13900
2017-08-12T09:29:20.021Z,19264
2017-08-12T09:30:32.640Z,12508
2017-08-12T09:31:44.910Z,11980
2017-08-12T09:32:57.444Z,12292
2017-08-12T09:34:09.752Z,11624
2017-08-12T09:35:22.285Z,10592
2017-08-12T09:36:34.895Z,13972
2017-08-12T09:37:47.490Z,12140
2017-08-12T09:38:59.748Z,9088
2017-08-12T09:40:12.020Z,7012
2017-08-12T09:41:24.634Z,9204
2017-08-12T09:42:37.002Z,11872
2017-08-12T09:43:49.525Z,8144
2017-08-12T09:45:02.121Z,10220
2017-08-12T09:46:14.712Z,13076
2017-08-12T09:47:26.988Z,12208
2017-08-12T09:48:39.204Z,15104
2017-08-12T09:49:51.186Z,11676
2017-08-12T09:51:03.797Z,8184
2017-08-12T09:52:16.087Z,10916
2017-08-12T09:53:28.668Z,7824
2017-08-12T09:54:40.993Z,10684
2017-08-12T09:55:53.557Z,11752
2017-08-12T09:57:06.174Z,10180
2017-08-12T09:58:18.382Z,14420
2017-08-12T09:59:30.949Z,14748
2017-08-12T10:00:43.523Z,13488
2017-08-12T10:01:56.108Z,15288
2017-08-12T10:03:08.408Z,21216
2017-08-12T10:04:20.956Z,22176
2017-08-12T10:05:33.521Z,20896
2017-08-12T10:06:46.095Z,21504
2017-08-12T10:07:58.669Z,15516
2017-08-12T10:09:11.283Z,16400
2017-08-12T10:10:23.856Z,18752
2017-08-12T10:11:36.471Z,20736
2017-08-12T10:12:49.071Z,21696
2017-08-12T10:14:01.718Z,18432
2017-08-12T10:15:13.988Z,18880
2017-08-12T10:16:26.559Z,23520
2017-08-12T10:17:39.181Z,30592
2017-08-12T10:18:51.777Z,31072
2017-08-12T10:20:03.998Z,34816
2017-08-12T10:21:16.624Z,34752
2017-08-12T10:22:28.915Z,36416
2017-08-12T10:23:41.542Z,38176
2017-08-12T10:24:53.833Z,35744
2017-08-12T10:26:06.450Z,35360
2017-08-12T10:27:18.399Z,36832
2017-08-12T10:28:30.962Z,36544
2017-08-12T10:29:43.616Z,35680
2017-08-12T10:30:56.187Z,30656
2017-08-12T10:32:08.707Z,33760
2017-08-12T10:33:20.635Z,31136
2017-08-12T10:34:33.286Z,31488
2017-08-12T10:35:45.599Z,31296
2017-08-12T10:36:57.840Z,30688
2017-08-12T10:38:10.344Z,29120
2017-08-12T10:39:22.942Z,24832
2017-08-12T10:40:35.176Z,29952
2017-08-12T10:41:47.451Z,29024
2017-08-12T10:43:00.125Z,29248
2017-08-12T10:44:12.402Z,29376
2017-08-12T10:45:24.390Z,28960
2017-08-12T10:46:37.043Z,28032
2017-08-12T10:47:49.633Z,27456
2017-08-12T10:49:01.876Z,25056
2017-08-12T10:50:14.119Z,23328
2017-08-12T10:51:26.137Z,23424
2017-08-12T10:52:38.386Z,22592
2017-08-12T10:53:50.956Z,23424
2017-08-12T10:55:02.945Z,25152
2017-08-12T10:56:15.561Z,26080
2017-08-12T10:57:27.881Z,27520
2017-08-12T10:58:40.225Z,28576
2017-08-12T10:59:52.845Z,26560
2017-08-12T11:01:05.099Z,27200
2017-08-12T11:02:17.337Z,23328
2017-08-12T11:03:29.300Z,22784
2017-08-12T11:04:41.878Z,20384
2017-08-12T11:05:54.231Z,16464
2017-08-12T11:07:06.525Z,23616
2017-08-12T11:08:19.168Z,29280
2017-08-12T11:09:31.210Z,23744
2017-08-12T11:10:43.801Z,23072
2017-08-12T11:11:56.377Z,26560
2017-08-12T11:13:08.967Z,20640
2017-08-12T11:14:21.325Z,13248
2017-08-12T11:15:33.901Z,13692
2017-08-12T11:16:46.488Z,18688
2017-08-12T11:17:58.781Z,21152
2017-08-12T11:19:11.323Z,16760
2017-08-12T11:20:24.071Z,19360
2017-08-12T11:21:36.339Z,19712
2017-08-12T11:22:49.085Z,20800
2017-08-12T11:24:01.680Z,18816
2017-08-12T11:25:13.718Z,18016
2017-08-12T11:26:26.015Z,14828
2017-08-12T11:27:38.600Z,17632
2017-08-12T11:28:51.265Z,19072
2017-08-12T11:30:03.509Z,20320
2017-08-12T11:31:15.787Z,16532
2017-08-12T11:32:28.120Z,14544
2017-08-12T11:33:40.700Z,13856
2017-08-12T11:34:52.668Z,22368
2017-08-12T11:36:05.226Z,20096
2017-08-12T11:37:17.891Z,20512
2017-08-12T11:38:30.232Z,22176
2017-08-12T11:39:42.452Z,21792
2017-08-12T11:40:54.759Z,19648
2017-08-12T11:42:06.444Z,22976
2017-08-12T11:43:18.814Z,21280
2017-08-12T11:44:31.425Z,18688
2017-08-12T11:45:44.040Z,18720
2017-08-12T11:46:56.639Z,18944
2017-08-12T11:48:08.910Z,24288
2017-08-12T11:49:21.281Z,29920
2017-08-12T11:50:33.302Z,33568
2017-08-12T11:51:45.587Z,32480
2017-08-12T11:52:58.157Z,28704
2017-08-12T11:54:10.777Z,32896
2017-08-12T11:55:23.674Z,33664
2017-08-12T11:56:35.697Z,34144
2017-08-12T11:57:48.241Z,30880
2017-08-12T11:59:00.475Z,32128
2017-08-12T12:00:12.757Z,32032
2017-08-12T12:01:24.730Z,32352
2017-08-12T12:02:37.005Z,33600
2017-08-12T12:03:49.327Z,33280
2017-08-12T12:05:01.931Z,35040
2017-08-12T12:06:14.544Z,36032
2017-08-12T12:07:26.509Z,36320
2017-08-12T12:08:38.761Z,35040
2017-08-12T12:09:51.033Z,31264
2017-08-12T12:11:03.606Z,29888
2017-08-12T12:12:15.570Z,32288
2017-08-12T12:13:27.867Z,33248
2017-08-12T12:14:39.834Z,34400
2017-08-12T12:15:51.812Z,33792
2017-08-12T12:17:04.076Z,25248
2017-08-12T12:18:16.346Z,32864
2017-08-12T12:19:28.341Z,34400
2017-08-12T12:20:39.739Z,30048
2017-08-12T12:21:52.334Z,29344
2017-08-12T12:23:05.181Z,25248
2017-08-12T12:24:17.688Z,19296
2017-08-12T12:25:30.048Z,21440
2017-08-12T12:26:42.700Z,24736
2017-08-12T12:27:55.265Z,29536
2017-08-12T12:29:07.838Z,32960
2017-08-12T12:30:20.386Z,38880
2017-08-12T12:31:33.058Z,36288
2017-08-12T12:32:45.634Z,30496
2017-08-12T12:33:58.250Z,33184
2017-08-12T12:35:10.489Z,32672
2017-08-12T12:36:23.097Z,30208
2017-08-12T12:37:35.418Z,32768
2017-08-12T12:38:47.705Z,40768
2017-08-12T12:40:00.273Z,37344
2017-08-12T12:41:12.522Z,32608
2017-08-12T12:42:24.797Z,27168
2017-08-12T12:43:37.439Z,20704
2017-08-12T12:44:49.991Z,18880
2017-08-12T12:46:02.351Z,20448
2017-08-12T12:47:14.299Z,24352
2017-08-12T12:48:26.277Z,24480
2017-08-12T12:49:38.598Z,23232
2017-08-12T12:50:50.835Z,19200
2017-08-12T12:52:02.843Z,16508
2017-08-12T12:53:14.853Z,14460
2017-08-12T12:54:27.424Z,11704
2017-08-12T12:55:39.670Z,10612
2017-08-12T12:56:52.193Z,10048
2017-08-12T12:58:04.144Z,10624
2017-08-12T12:59:16.443Z,11448
2017-08-12T13:00:28.741Z,11380
2017-08-12T13:01:41.042Z,10812
2017-08-12T13:02:53.305Z,10144
2017-08-12T13:04:05.917Z,9696
2017-08-12T13:05:18.187Z,9884
2017-08-12T13:06:30.757Z,10544
2017-08-12T13:07:42.406Z,11352
2017-08-12T13:08:54.663Z,12564
2017-08-12T13:10:06.949Z,13264
2017-08-12T13:11:19.591Z,12896
2017-08-12T13:12:31.914Z,11576
2017-08-12T13:13:44.461Z,10508
2017-08-12T13:14:56.727Z,9384
2017-08-12T13:16:08.738Z,8756
2017-08-12T13:17:21.052Z,8992
2017-08-12T13:18:33.366Z,9744
2017-08-12T13:19:45.316Z,10256
2017-08-12T13:20:57.890Z,10496
2017-08-12T13:22:09.596Z,10516
2017-08-12T13:23:21.901Z,10244
2017-08-12T13:24:34.146Z,10204
2017-08-12T13:25:46.409Z,12044
2017-08-12T13:26:58.447Z,15756
2017-08-12T13:28:11.311Z,19392
2017-08-12T13:29:23.848Z,22816
2017-08-12T13:30:36.102Z,26816
2017-08-12T13:31:48.608Z,29888
2017-08-12T13:33:01.196Z,30496
2017-08-12T13:34:13.476Z,28320
2017-08-12T13:35:25.814Z,29824
2017-08-12T13:36:38.106Z,29600
2017-08-12T13:37:50.397Z,27808
2017-08-12T13:39:02.966Z,26784
2017-08-12T13:40:15.278Z,23712
2017-08-12T13:41:27.882Z,25056
2017-08-12T13:42:40.174Z,21440
2017-08-12T13:43:52.433Z,21344
2017-08-12T13:45:05.089Z,18240
2017-08-12T13:46:17.409Z,16996
2017-08-12T13:47:29.448Z,17952
2017-08-12T13:48:41.994Z,18176
2017-08-12T13:49:54.211Z,18752
2017-08-12T13:51:06.833Z,18624
2017-08-12T13:52:19.428Z,17984
2017-08-12T13:53:31.974Z,17920
2017-08-12T13:54:44.246Z,18688
2017-08-12T13:55:56.877Z,19264
2017-08-12T13:57:09.472Z,20128
2017-08-12T13:58:21.461Z,21440
2017-08-12T13:59:33.760Z,22624
2017-08-12T14:00:45.753Z,23808
2017-08-12T14:01:58.377Z,26432
2017-08-12T14:03:10.724Z,27232
2017-08-12T14:04:23.330Z,25376
2017-08-12T14:05:35.608Z,22112
2017-08-12T14:06:47.890Z,20736
2017-08-12T14:08:00.442Z,21024
2017-08-12T14:09:12.752Z,20928
2017-08-12T14:10:25.059Z,21088
2017-08-12T14:11:37.626Z,28544
2017-08-12T14:12:49.917Z,27552
2017-08-12T14:14:02.213Z,21824
2017-08-12T14:15:14.574Z,18912
2017-08-12T14:16:26.273Z,18560
2017-08-12T14:17:38.892Z,17728
2017-08-12T14:18:51.488Z,17632
2017-08-12T14:20:04.062Z,18304
2017-08-12T14:21:15.960Z,17952
2017-08-12T14:22:28.552Z,16768
2017-08-12T14:23:40.825Z,16336
2017-08-12T14:24:53.436Z,15852
2017-08-12T14:26:05.771Z,15128
2017-08-12T14:27:18.352Z,14512
2017-08-12T14:28:31.037Z,14360
2017-08-12T14:29:43.638Z,14504
2017-08-12T14:30:56.223Z,14432
2017-08-12T14:32:08.500Z,14328
2017-08-12T14:33:21.100Z,14700
2017-08-12T14:34:33.446Z,14856
2017-08-12T14:35:45.789Z,14516
2017-08-12T14:36:58.376Z,13844
2017-08-12T14:38:10.022Z,13164
2017-08-12T14:39:22.662Z,12540
2017-08-12T14:40:35.241Z,12036
2017-08-12T14:41:47.536Z,11544
2017-08-12T14:43:00.139Z,11036
2017-08-12T14:44:12.129Z,10656
2017-08-12T14:45:23.790Z,10416
2017-08-12T14:46:36.075Z,10304
2017-08-12T14:47:48.383Z,10184
2017-08-12T14:49:00.918Z,10276
2017-08-12T14:50:12.928Z,10716
2017-08-12T14:51:25.229Z,11548
2017-08-12T14:52:37.885Z,12636
2017-08-12T14:53:50.224Z,13564
2017-08-12T14:55:02.796Z,14368
2017-08-12T14:56:15.390Z,14812
2017-08-12T14:57:28.019Z,14916
2017-08-12T14:58:40.303Z,15052
2017-08-12T14:59:52.839Z,14960
2017-08-12T15:01:04.857Z,14596
2017-08-12T15:02:17.466Z,14172
2017-08-12T15:03:29.761Z,13988
2017-08-12T15:04:41.668Z,14048
2017-08-12T15:05:54.272Z,14212
2017-08-12T15:07:06.931Z,14344
2017-08-12T15:08:19.256Z,14508
2017-08-12T15:09:31.252Z,14624
2017-08-12T15:10:43.539Z,14768
2017-08-12T15:11:56.091Z,15016
2017-08-12T15:13:08.731Z,15328
2017-08-12T15:14:20.962Z,15608
2017-08-12T15:15:33.579Z,15540
2017-08-12T15:16:45.941Z,15536
2017-08-12T15:17:58.187Z,15508
2017-08-12T15:19:10.228Z,15180
2017-08-12T15:20:22.817Z,15060
2017-08-12T15:21:35.663Z,14864
2017-08-12T15:22:47.947Z,14912
2017-08-12T15:24:00.568Z,14872
2017-08-12T15:25:13.176Z,15768
2017-08-12T15:26:25.776Z,16684
2017-08-12T15:27:38.385Z,17152
2017-08-12T15:28:50.988Z,17440
2017-08-12T15:30:11.034Z,17152
2017-08-12T15:31:23.705Z,16704
2017-08-12T15:32:36.290Z,16408
2017-08-12T15:33:48.891Z,17216
2017-08-12T15:35:01.442Z,17824
2017-08-12T15:36:14.133Z,18624
2017-08-12T15:37:26.697Z,19168
2017-08-12T15:38:39.297Z,19072
2017-08-12T15:39:51.860Z,20320
2017-08-12T15:41:04.185Z,19968
2017-08-12T15:42:16.716Z,17160
2017-08-12T15:43:28.978Z,15688
2017-08-12T15:44:41.530Z,13620
2017-08-12T15:45:54.147Z,12660
2017-08-12T15:47:06.803Z,12236
2017-08-12T15:48:19.073Z,12228
2017-08-12T15:49:31.679Z,12520
2017-08-12T15:50:43.917Z,12580
2017-08-12T15:51:56.576Z,13168
2017-08-12T15:53:08.869Z,13256
2017-08-12T15:54:20.844Z,12908
2017-08-12T15:55:33.447Z,11824
2017-08-12T15:56:46.133Z,10748
2017-08-12T15:57:58.654Z,9540
2017-08-12T15:59:11.491Z,8184
2017-08-12T16:00:24.151Z,7628
2017-08-12T16:01:36.742Z,7092
2017-08-12T16:02:48.712Z,6784
2017-08-12T16:04:01.364Z,6560
2017-08-12T16:05:13.696Z,6028
2017-08-12T16:06:26.292Z,5356
2017-08-12T16:07:38.846Z,5208
2017-08-12T16:08:51.404Z,5152
2017-08-12T16:10:03.728Z,4840
2017-08-12T16:11:16.007Z,4872
2017-08-12T16:12:28.259Z,4992
2017-08-12T16:13:40.211Z,5072